createdAt,value
2022-11-17T00:01:56.599Z,7.63
2022-11-17T00:04:26.828Z,6.40
2022-11-17T00:06:53.534Z,6.43
2022-11-17T00:09:20.628Z,6.45
2022-11-17T00:12:07.257Z,8.38
2022-11-17T00:14:36.523Z,8.48
2022-11-17T00:17:06.207Z,8.02
2022-11-17T00:19:51.494Z,8.15
2022-11-17T00:22:18.339Z,7.82
2022-11-17T00:24:45.029Z,7.03
2022-11-17T00:27:12.399Z,7.93
2022-11-17T00:29:39.582Z,21.33
2022-11-17T00:32:29.950Z,15.30
2022-11-17T00:34:56.676Z,14.43
2022-11-17T00:37:23.633Z,11.32
2022-11-17T00:39:50.344Z,7.05
2022-11-17T00:42:17.024Z,7.60
2022-11-17T00:44:43.994Z,8.82
2022-11-17T00:47:11.212Z,9.25
2022-11-17T00:49:37.966Z,8.55
2022-11-17T00:52:04.828Z,8.30
2022-11-17T00:54:31.603Z,8.50
2022-11-17T00:56:58.289Z,9.00
2022-11-17T00:59:25.140Z,9.25
2022-11-17T01:01:51.841Z,8.77
2022-11-17T01:04:18.738Z,10.90
2022-11-17T01:06:48.084Z,9.75
2022-11-17T01:09:14.846Z,9.15
2022-11-17T01:11:42.347Z,8.85
2022-11-17T01:14:17.448Z,9.88
2022-11-17T01:16:44.496Z,8.05
2022-11-17T01:19:13.389Z,7.85
2022-11-17T01:21:40.187Z,8.27
2022-11-17T01:24:07.192Z,7.35
2022-11-17T01:26:36.559Z,6.97
2022-11-17T01:29:04.368Z,7.00
2022-11-17T01:31:33.377Z,8.15
2022-11-17T01:34:00.397Z,7.32
2022-11-17T01:36:53.235Z,7.43
2022-11-17T01:39:20.254Z,7.60
2022-11-17T01:41:47.106Z,6.43
2022-11-17T01:44:35.715Z,7.10
2022-11-17T01:47:04.713Z,6.65
2022-11-17T01:49:32.024Z,7.38
2022-11-17T01:52:05.147Z,8.02
2022-11-17T01:54:35.303Z,6.97
2022-11-17T01:57:10.310Z,7.07
2022-11-17T01:59:42.068Z,7.15
2022-11-17T02:02:09.359Z,7.45
2022-11-17T02:04:41.307Z,6.93
2022-11-17T02:07:25.426Z,7.22
2022-11-17T02:09:56.118Z,8.00
2022-11-17T02:12:26.492Z,7.53
2022-11-17T02:14:54.520Z,7.95
2022-11-17T02:17:23.908Z,8.02
2022-11-17T02:20:01.709Z,8.55
2022-11-17T02:22:59.096Z,7.68
2022-11-17T02:25:35.155Z,8.95
2022-11-17T02:28:20.909Z,7.75
2022-11-17T02:31:25.631Z,6.70
2022-11-17T02:34:03.779Z,7.05
2022-11-17T02:36:53.086Z,8.00
2022-11-17T02:39:26.550Z,7.88
2022-11-17T02:42:14.158Z,7.90
2022-11-17T02:45:00.842Z,7.22
2022-11-17T02:47:30.483Z,6.10
2022-11-17T02:50:05.227Z,5.47
2022-11-17T02:52:31.991Z,5.88
2022-11-17T02:55:07.896Z,5.88
2022-11-17T02:57:37.339Z,5.82
2022-11-17T03:00:09.187Z,5.30
2022-11-17T03:02:54.620Z,5.53
2022-11-17T03:05:44.359Z,5.30
2022-11-17T03:08:49.160Z,4.78
2022-11-17T03:11:16.453Z,5.60
2022-11-17T03:14:06.870Z,6.18
2022-11-17T03:16:36.499Z,5.28
2022-11-17T03:19:18.111Z,5.10
2022-11-17T03:21:51.352Z,5.90
2022-11-17T03:24:42.073Z,5.18
2022-11-17T03:27:24.924Z,5.30
2022-11-17T03:29:56.973Z,5.05
2022-11-17T03:32:24.820Z,4.68
2022-11-17T03:34:57.535Z,4.72
2022-11-17T03:37:30.604Z,4.50
2022-11-17T03:40:07.529Z,4.90
2022-11-17T03:42:36.428Z,6.07
2022-11-17T03:45:20.168Z,5.30
2022-11-17T03:47:49.003Z,4.95
2022-11-17T03:50:22.908Z,4.85
2022-11-17T03:52:49.924Z,4.80
2022-11-17T03:55:17.067Z,5.72
2022-11-17T03:58:01.023Z,5.20
2022-11-17T04:00:27.655Z,3.87
2022-11-17T04:02:56.436Z,4.00
2022-11-17T04:05:23.082Z,4.60
2022-11-17T04:07:49.776Z,5.53
2022-11-17T04:10:18.938Z,4.97
2022-11-17T04:13:05.021Z,3.72
2022-11-17T04:15:50.262Z,3.35
2022-11-17T04:18:17.458Z,3.30
2022-11-17T04:20:44.391Z,3.30
2022-11-17T04:23:14.172Z,3.47
2022-11-17T04:26:02.681Z,3.30
2022-11-17T04:28:39.817Z,3.65
2022-11-17T04:31:18.792Z,3.58
2022-11-17T04:33:47.780Z,3.38
2022-11-17T04:36:17.386Z,3.50
2022-11-17T04:38:46.254Z,3.35
2022-11-17T04:41:33.829Z,3.50
2022-11-17T04:44:01.713Z,3.38
2022-11-17T04:46:31.046Z,3.47
2022-11-17T04:48:58.649Z,3.70
2022-11-17T04:51:26.474Z,4.10
2022-11-17T04:53:53.679Z,4.10
2022-11-17T04:56:22.453Z,3.63
2022-11-17T04:58:49.936Z,4.20
2022-11-17T05:01:18.721Z,3.60
2022-11-17T05:03:51.022Z,4.05
2022-11-17T05:06:44.732Z,4.55
2022-11-17T05:09:16.421Z,3.90
2022-11-17T05:12:02.399Z,3.80
2022-11-17T05:14:29.636Z,4.30
2022-11-17T05:17:10.430Z,6.10
2022-11-17T05:19:47.957Z,3.97
2022-11-17T05:22:40.740Z,5.15
2022-11-17T05:25:07.892Z,4.70
2022-11-17T05:27:35.349Z,4.53
2022-11-17T05:30:03.974Z,4.60
2022-11-17T05:32:30.619Z,5.00
2022-11-17T05:34:57.272Z,4.75
2022-11-17T05:37:23.990Z,4.78
2022-11-17T05:39:50.691Z,4.88
2022-11-17T05:42:17.384Z,4.47
2022-11-17T05:44:44.123Z,4.07
2022-11-17T05:47:10.782Z,4.63
2022-11-17T05:49:37.517Z,4.32
2022-11-17T05:52:04.419Z,5.57
2022-11-17T05:54:31.090Z,5.35
2022-11-17T05:57:12.282Z,4.70
2022-11-17T05:59:49.408Z,5.10
2022-11-17T06:02:31.143Z,10.88
2022-11-17T06:04:58.116Z,11.02
2022-11-17T06:07:25.103Z,9.07
2022-11-17T06:09:52.380Z,9.00
2022-11-17T06:12:19.090Z,6.05
2022-11-17T06:14:45.906Z,5.65
2022-11-17T06:17:26.347Z,5.05
2022-11-17T06:20:01.425Z,4.88
2022-11-17T06:22:28.955Z,4.80
2022-11-17T06:24:56.218Z,5.18
2022-11-17T06:27:25.443Z,4.60
2022-11-17T06:29:52.927Z,7.32
2022-11-17T06:32:20.000Z,7.47
2022-11-17T06:34:55.283Z,5.65
2022-11-17T06:37:23.832Z,4.63
2022-11-17T06:39:50.594Z,3.80
2022-11-17T06:42:17.276Z,3.95
2022-11-17T06:44:44.074Z,4.18
2022-11-17T06:47:10.719Z,4.82
2022-11-17T06:49:37.384Z,4.20
2022-11-17T06:52:04.053Z,4.50
2022-11-17T06:54:30.724Z,4.72
2022-11-17T06:56:57.362Z,4.68
2022-11-17T06:59:24.047Z,4.10
2022-11-17T07:01:51.063Z,4.50
2022-11-17T07:04:17.705Z,5.00
2022-11-17T07:06:44.373Z,4.70
2022-11-17T07:09:11.020Z,4.28
2022-11-17T07:11:37.858Z,4.40
2022-11-17T07:14:04.534Z,4.38
2022-11-17T07:16:32.568Z,4.00
2022-11-17T07:18:59.849Z,4.20
2022-11-17T07:21:26.581Z,3.92
2022-11-17T07:23:53.391Z,4.32
2022-11-17T07:26:20.102Z,3.90
2022-11-17T07:28:46.807Z,3.50
2022-11-17T07:31:13.461Z,3.70
2022-11-17T07:33:40.131Z,3.50
2022-11-17T07:36:09.795Z,3.25
2022-11-17T07:38:38.589Z,3.92
2022-11-17T07:41:07.340Z,3.38
2022-11-17T07:43:35.894Z,3.20
2022-11-17T07:46:13.376Z,3.50
2022-11-17T07:48:40.868Z,3.28
2022-11-17T07:51:07.890Z,3.13
2022-11-17T07:53:35.528Z,2.55
2022-11-17T07:56:10.297Z,2.72
2022-11-17T07:58:38.132Z,3.10
2022-11-17T08:01:07.507Z,3.38
2022-11-17T08:03:34.276Z,4.35
2022-11-17T08:06:05.720Z,4.68
2022-11-17T08:08:32.715Z,4.20
2022-11-17T08:11:07.743Z,3.47
2022-11-17T08:13:35.317Z,3.30
2022-11-17T08:16:02.868Z,3.20
2022-11-17T08:18:29.806Z,3.13
2022-11-17T08:21:11.748Z,2.95
2022-11-17T08:23:38.625Z,4.05
2022-11-17T08:26:06.863Z,4.72
2022-11-17T08:28:36.830Z,5.93
2022-11-17T08:31:05.187Z,4.13
2022-11-17T08:33:32.597Z,4.22
2022-11-17T08:36:00.341Z,3.50
2022-11-17T08:38:28.956Z,3.00
2022-11-17T08:41:01.745Z,2.47
2022-11-17T08:43:29.142Z,2.50
2022-11-17T08:45:56.135Z,2.55
2022-11-17T08:48:23.775Z,3.17
2022-11-17T08:50:51.183Z,2.42
2022-11-17T08:53:19.635Z,2.63
2022-11-17T08:55:46.808Z,2.08
2022-11-17T08:58:13.976Z,2.40
2022-11-17T09:00:41.275Z,2.70
2022-11-17T09:03:09.892Z,2.70
2022-11-17T09:05:45.262Z,2.90
2022-11-17T09:08:44.028Z,2.67
2022-11-17T09:11:05.150Z,2.25
2022-11-17T09:13:31.981Z,2.20
2022-11-17T09:16:03.246Z,2.33
2022-11-17T09:18:30.328Z,3.00
2022-11-17T09:21:12.047Z,2.58
2022-11-17T09:23:39.668Z,2.70
2022-11-17T09:26:12.628Z,2.65
2022-11-17T09:28:39.773Z,3.72
2022-11-17T09:31:19.095Z,3.20
2022-11-17T09:33:46.523Z,2.55
2022-11-17T09:36:15.377Z,2.80
2022-11-17T09:38:42.677Z,2.97
2022-11-17T09:41:12.130Z,3.05
2022-11-17T09:43:43.022Z,2.75
2022-11-17T09:46:15.670Z,2.67
2022-11-17T09:48:53.687Z,2.47
2022-11-17T09:51:23.920Z,2.97
2022-11-17T09:54:18.329Z,3.08
2022-11-17T09:56:47.264Z,4.78
2022-11-17T09:59:16.334Z,7.43
2022-11-17T10:01:43.127Z,4.03
2022-11-17T10:04:16.744Z,3.45
2022-11-17T10:06:47.276Z,3.27
2022-11-17T10:09:26.260Z,4.28
2022-11-17T10:11:54.408Z,3.53
2022-11-17T10:14:22.234Z,4.57
2022-11-17T10:16:58.409Z,5.53
2022-11-17T10:19:30.784Z,3.38
2022-11-17T10:22:03.747Z,3.60
2022-11-17T10:24:54.950Z,2.92
2022-11-17T10:27:27.925Z,3.85
2022-11-17T10:30:07.085Z,3.20
2022-11-17T10:32:48.195Z,2.65
2022-11-17T10:35:27.177Z,2.10
2022-11-17T10:38:01.974Z,2.42
2022-11-17T10:40:39.249Z,2.40
2022-11-17T10:43:39.199Z,2.38
2022-11-17T10:46:14.541Z,2.80
2022-11-17T10:48:57.669Z,1.63
2022-11-17T10:51:26.707Z,1.30
2022-11-17T10:54:11.823Z,1.30
2022-11-17T10:56:44.405Z,1.33
2022-11-17T10:59:26.468Z,1.30
2022-11-17T11:01:53.230Z,1.63
2022-11-17T11:04:32.550Z,2.10
2022-11-17T11:07:20.860Z,1.27
2022-11-17T11:09:56.349Z,2.85
2022-11-17T11:12:34.271Z,2.10
2022-11-17T11:15:03.215Z,1.88
2022-11-17T11:17:30.209Z,2.30
2022-11-17T11:19:58.829Z,2.55
2022-11-17T11:22:38.132Z,2.63
2022-11-17T11:25:35.792Z,2.17
2022-11-17T11:28:34.622Z,1.00
2022-11-17T11:31:14.682Z,1.42
2022-11-17T11:34:17.398Z,1.48
2022-11-17T11:36:58.807Z,1.10
2022-11-17T11:39:45.691Z,1.20
2022-11-17T11:42:34.958Z,2.30
2022-11-17T11:45:01.600Z,1.65
2022-11-17T11:47:33.975Z,1.17
2022-11-17T11:50:14.456Z,1.70
2022-11-17T11:52:47.825Z,1.20
2022-11-17T11:55:22.252Z,1.30
2022-11-17T12:00:20.519Z,1.50
2022-11-17T12:02:53.572Z,1.92
2022-11-17T12:05:29.040Z,2.20
2022-11-17T12:08:19.560Z,1.80
2022-11-17T12:11:30.977Z,2.80
2022-11-17T12:13:58.932Z,6.47
2022-11-17T12:16:36.526Z,2.67
2022-11-17T12:19:42.445Z,2.47
2022-11-17T12:22:09.708Z,2.05
2022-11-17T12:24:41.262Z,1.67
2022-11-17T12:27:33.974Z,1.50
2022-11-17T12:30:02.722Z,1.30
2022-11-17T12:32:44.872Z,1.23
2022-11-17T12:35:31.501Z,1.20
2022-11-17T12:38:16.532Z,1.35
2022-11-17T12:40:46.149Z,1.52
2022-11-17T12:43:15.662Z,1.38
2022-11-17T12:46:03.919Z,1.13
2022-11-17T12:48:39.395Z,1.50
2022-11-17T12:51:35.779Z,1.65
2022-11-17T12:54:16.402Z,1.58
2022-11-17T12:57:17.143Z,2.30
2022-11-17T12:59:49.604Z,1.85
2022-11-17T13:02:35.483Z,1.50
2022-11-17T13:05:14.559Z,1.48
2022-11-17T13:07:41.367Z,1.58
2022-11-17T13:10:27.023Z,1.35
2022-11-17T13:13:16.823Z,1.40
2022-11-17T13:15:44.726Z,1.50
2022-11-17T13:18:38.439Z,1.50
2022-11-17T13:21:36.140Z,2.47
2022-11-17T13:24:02.848Z,1.80
2022-11-17T13:26:35.923Z,2.00
2022-11-17T13:29:04.644Z,1.92
2022-11-17T13:31:31.759Z,2.90
2022-11-17T13:34:13.430Z,2.00
2022-11-17T13:37:17.127Z,2.10
2022-11-17T13:39:58.557Z,1.90
2022-11-17T13:42:27.878Z,1.60
2022-11-17T13:44:57.364Z,1.55
2022-11-17T13:47:28.952Z,1.35
2022-11-17T13:49:55.646Z,2.05
2022-11-17T13:52:41.939Z,1.50
2022-11-17T13:55:17.975Z,1.65
2022-11-17T13:58:05.165Z,1.58
2022-11-17T14:00:32.969Z,2.47
2022-11-17T14:03:26.364Z,2.03
2022-11-17T14:05:59.351Z,1.70
2022-11-17T14:08:31.728Z,1.27
2022-11-17T14:11:14.218Z,1.58
2022-11-17T14:14:12.077Z,1.40
2022-11-17T14:16:40.915Z,1.80
2022-11-17T14:19:16.929Z,2.42
2022-11-17T14:22:08.538Z,2.13
2022-11-17T14:24:36.369Z,2.65
2022-11-17T14:27:11.883Z,2.17
2022-11-17T14:29:38.710Z,1.77
2022-11-17T14:32:05.516Z,1.83
2022-11-17T14:34:32.314Z,1.75
2022-11-17T14:36:58.979Z,1.52
2022-11-17T14:39:25.698Z,3.15
2022-11-17T14:41:52.430Z,4.63
2022-11-17T14:44:19.245Z,4.10
2022-11-17T14:46:46.000Z,4.72
2022-11-17T14:49:13.125Z,3.63
2022-11-17T14:51:40.248Z,5.88
2022-11-17T14:54:07.133Z,3.95
2022-11-17T14:56:34.790Z,5.25
2022-11-17T14:59:02.185Z,4.10
2022-11-17T15:01:31.993Z,6.20
2022-11-17T15:04:15.733Z,3.97
2022-11-17T15:06:49.922Z,2.03
2022-11-17T15:09:16.651Z,2.03
2022-11-17T15:11:43.359Z,2.20
2022-11-17T15:14:10.892Z,2.45
2022-11-17T15:16:37.623Z,2.20
2022-11-17T15:19:04.590Z,2.15
2022-11-17T15:21:31.311Z,2.72
2022-11-17T15:23:58.150Z,3.03
2022-11-17T15:26:25.077Z,3.55
2022-11-17T15:28:51.735Z,2.47
2022-11-17T15:31:19.964Z,3.95
2022-11-17T15:33:47.977Z,4.90
2022-11-17T15:36:17.401Z,4.03
2022-11-17T15:38:44.448Z,3.83
2022-11-17T15:41:12.854Z,3.75
2022-11-17T15:43:41.376Z,2.20
2022-11-17T15:46:12.549Z,3.35
2022-11-17T15:48:43.299Z,3.88
2022-11-17T15:51:27.604Z,4.28
2022-11-17T15:53:58.259Z,3.80
2022-11-17T15:56:27.726Z,2.92
2022-11-17T15:59:01.732Z,3.78
2022-11-17T16:01:35.341Z,3.70
2022-11-17T16:04:14.678Z,2.70
2022-11-17T16:06:42.938Z,2.13
2022-11-17T16:09:10.317Z,2.53
2022-11-17T16:11:37.618Z,2.50
2022-11-17T16:14:05.204Z,2.65
2022-11-17T16:16:34.915Z,12.70
2022-11-17T16:19:02.253Z,7.50
2022-11-17T16:21:29.263Z,3.80
2022-11-17T16:23:57.295Z,4.57
2022-11-17T16:26:25.611Z,5.80
2022-11-17T16:29:07.744Z,3.17
2022-11-17T16:31:36.405Z,3.22
2022-11-17T16:34:11.765Z,6.85
2022-11-17T16:36:40.289Z,2.50
2022-11-17T16:39:09.822Z,2.67
2022-11-17T16:41:39.424Z,2.42
2022-11-17T16:44:11.864Z,1.90
2022-11-17T16:46:41.102Z,1.60
2022-11-17T16:49:10.922Z,2.08
2022-11-17T16:51:37.723Z,3.40
2022-11-17T16:54:06.846Z,7.63
2022-11-17T16:56:34.415Z,12.68
2022-11-17T16:59:01.312Z,7.53
2022-11-17T17:01:30.487Z,2.80
2022-11-17T17:04:06.322Z,1.50
2022-11-17T17:06:34.110Z,1.42
2022-11-17T17:09:03.326Z,2.15
2022-11-17T17:11:32.017Z,3.10
2022-11-17T17:14:00.298Z,3.47
2022-11-17T17:16:27.038Z,3.72
2022-11-17T17:19:02.003Z,4.70
2022-11-17T17:21:29.126Z,4.20
2022-11-17T17:23:56.412Z,4.40
2022-11-17T17:26:25.688Z,3.95
2022-11-17T17:28:55.017Z,3.45
2022-11-17T17:31:22.657Z,3.10
2022-11-17T17:33:50.806Z,3.10
2022-11-17T17:36:23.474Z,2.97
2022-11-17T17:38:55.409Z,3.00
2022-11-17T17:41:27.237Z,3.30
2022-11-17T17:43:56.763Z,3.08
2022-11-17T17:46:24.259Z,2.50
2022-11-17T17:48:51.120Z,2.67
2022-11-17T17:51:20.293Z,2.42
2022-11-17T17:53:50.427Z,2.85
2022-11-17T17:56:19.418Z,4.70
2022-11-17T17:58:47.987Z,5.65
2022-11-17T18:01:20.065Z,2.60
2022-11-17T18:03:48.449Z,4.13
2022-11-17T18:06:17.720Z,5.10
2022-11-17T18:08:45.595Z,5.60
2022-11-17T18:11:16.366Z,3.95
2022-11-17T18:13:44.868Z,2.90
2022-11-17T18:16:13.928Z,3.03
2022-11-17T18:18:42.088Z,2.90
2022-11-17T18:21:11.496Z,2.72
2022-11-17T18:23:38.432Z,3.35
2022-11-17T18:26:25.480Z,3.00
2022-11-17T18:29:02.515Z,2.90
2022-11-17T18:31:32.252Z,3.17
2022-11-17T18:34:01.457Z,3.33
2022-11-17T18:36:29.056Z,4.13
2022-11-17T18:38:58.316Z,6.57
2022-11-17T18:41:26.443Z,7.13
2022-11-17T18:43:54.512Z,6.70
2022-11-17T18:46:24.611Z,7.07
2022-11-17T18:48:52.297Z,5.60
2022-11-17T18:51:24.423Z,7.13
2022-11-17T18:53:52.641Z,7.03
2022-11-17T18:56:22.405Z,5.70
2022-11-17T18:58:49.791Z,9.63
2022-11-17T19:01:21.538Z,5.57
2022-11-17T19:03:53.484Z,2.63
2022-11-17T19:06:21.934Z,2.42
2022-11-17T19:08:49.471Z,1.70
2022-11-17T19:11:17.875Z,2.00
2022-11-17T19:13:45.544Z,1.85
2022-11-17T19:16:14.818Z,1.25
2022-11-17T19:18:42.662Z,1.20
2022-11-17T19:21:15.448Z,1.10
2022-11-17T19:23:49.613Z,0.98
2022-11-17T19:26:25.871Z,0.93
2022-11-17T19:28:57.621Z,0.85
2022-11-17T19:31:24.906Z,0.93
2022-11-17T19:33:51.633Z,1.00
2022-11-17T19:36:23.750Z,0.90
2022-11-17T19:38:54.967Z,0.80
2022-11-17T19:41:34.226Z,0.70
2022-11-17T19:44:06.474Z,0.65
2022-11-17T19:46:33.731Z,0.73
2022-11-17T19:49:00.486Z,1.00
2022-11-17T19:51:32.367Z,3.00
2022-11-17T19:54:03.030Z,2.08
2022-11-17T19:56:29.869Z,1.80
2022-11-17T19:58:56.889Z,1.48
2022-11-17T20:01:28.379Z,2.20
2022-11-17T20:03:56.430Z,1.90
2022-11-17T20:06:27.208Z,1.40
2022-11-17T20:08:55.497Z,1.60
2022-11-17T20:11:24.924Z,1.27
2022-11-17T20:13:52.034Z,1.15
2022-11-17T20:16:26.852Z,1.23
2022-11-17T20:18:56.168Z,1.30
2022-11-17T20:21:23.657Z,1.20
2022-11-17T20:23:50.514Z,1.00
2022-11-17T20:26:23.093Z,1.90
2022-11-17T20:28:50.661Z,1.80
2022-11-17T20:31:24.208Z,1.77
2022-11-17T20:33:51.848Z,1.67
2022-11-17T20:36:20.674Z,1.77
2022-11-17T20:39:02.047Z,2.00
2022-11-17T20:41:29.468Z,2.40
2022-11-17T20:43:58.392Z,1.95
2022-11-17T20:46:25.597Z,2.08
2022-11-17T20:48:52.476Z,1.73
2022-11-17T20:51:21.454Z,1.55
2022-11-17T20:53:48.562Z,1.08
2022-11-17T20:56:16.420Z,1.52
2022-11-17T20:58:43.567Z,1.40
2022-11-17T21:01:19.256Z,1.20
2022-11-17T21:03:46.925Z,2.25
2022-11-17T21:06:14.156Z,5.00
2022-11-17T21:08:42.399Z,4.30
2022-11-17T21:11:32.051Z,4.95
2022-11-17T21:13:59.548Z,3.30
2022-11-17T21:16:26.234Z,3.40
2022-11-17T21:18:52.970Z,2.95
2022-11-17T21:21:19.971Z,2.53
2022-11-17T21:23:46.766Z,2.97
2022-11-17T21:26:17.153Z,2.22
2022-11-17T21:28:44.397Z,3.95
2022-11-17T21:31:27.886Z,4.57
2022-11-17T21:33:57.403Z,2.00
2022-11-17T21:36:26.268Z,4.22
2022-11-17T21:38:53.579Z,2.20
2022-11-17T21:41:23.533Z,2.13
2022-11-17T21:43:51.796Z,1.98
2022-11-17T21:46:21.407Z,1.58
2022-11-17T21:48:48.503Z,1.10
2022-11-17T21:51:21.356Z,1.50
2022-11-17T21:53:52.584Z,1.10
2022-11-17T21:56:19.319Z,1.90
2022-11-17T21:58:46.319Z,2.03
2022-11-17T22:01:15.874Z,1.95
2022-11-17T22:03:43.108Z,2.38
2022-11-17T22:06:12.688Z,2.67
2022-11-17T22:08:41.657Z,2.40
2022-11-17T22:11:11.023Z,1.60
2022-11-17T22:13:37.789Z,1.02
2022-11-17T22:16:10.792Z,1.70
2022-11-17T22:18:37.834Z,1.30
2022-11-17T22:21:06.783Z,6.68
2022-11-17T22:23:34.127Z,3.10
2022-11-17T22:26:03.646Z,1.40
2022-11-17T22:28:30.601Z,1.08
2022-11-17T22:30:57.456Z,0.80
2022-11-17T22:33:24.453Z,0.88
2022-11-17T22:35:51.276Z,0.95
2022-11-17T22:38:18.260Z,0.80
2022-11-17T22:40:45.041Z,0.82
2022-11-17T22:43:15.265Z,0.70
2022-11-17T22:45:42.373Z,0.80
2022-11-17T22:48:09.098Z,0.98
2022-11-17T22:50:36.517Z,0.80
2022-11-17T22:53:03.854Z,1.00
2022-11-17T22:55:33.113Z,1.08
2022-11-17T22:57:59.924Z,0.70
2022-11-17T23:00:26.872Z,0.90
2022-11-17T23:02:53.620Z,1.00
2022-11-17T23:05:20.375Z,1.00
2022-11-17T23:07:47.048Z,1.27
2022-11-17T23:10:14.659Z,1.10
2022-11-17T23:12:41.575Z,0.90
2022-11-17T23:15:08.606Z,0.90
2022-11-17T23:17:35.507Z,1.45
2022-11-17T23:20:02.267Z,1.73
2022-11-17T23:22:29.184Z,0.95
2022-11-17T23:24:55.926Z,1.00
2022-11-17T23:27:22.717Z,0.90
2022-11-17T23:29:49.849Z,0.98
2022-11-17T23:32:16.538Z,0.98
2022-11-17T23:34:43.225Z,0.82
2022-11-17T23:37:09.946Z,1.00
2022-11-17T23:39:36.638Z,1.00
2022-11-17T23:42:03.358Z,1.00
2022-11-17T23:44:30.282Z,0.93
2022-11-17T23:46:57.299Z,0.90
2022-11-17T23:49:24.030Z,1.00
2022-11-17T23:51:50.718Z,0.80
2022-11-17T23:54:17.876Z,1.10
2022-11-17T23:56:44.582Z,0.85
2022-11-17T23:59:11.448Z,1.08
